createdAt,value
2023-04-12T00:01:42.248Z,99197.00
2023-04-12T00:04:11.050Z,99193.00
2023-04-12T00:06:40.313Z,99184.00
2023-04-12T00:09:08.718Z,99183.00
2023-04-12T00:11:36.825Z,99181.00
2023-04-12T00:14:04.719Z,99183.00
2023-04-12T00:16:32.748Z,99191.00
2023-04-12T00:19:01.526Z,99167.00
2023-04-12T00:21:29.768Z,99181.00
2023-04-12T00:23:59.337Z,99174.00
2023-04-12T00:26:27.340Z,99166.00
2023-04-12T00:28:55.806Z,99158.00
2023-04-12T00:31:23.906Z,99161.00
2023-04-12T00:33:51.918Z,99157.00
2023-04-12T00:36:20.513Z,99147.00
2023-04-12T00:38:48.493Z,99145.00
2023-04-12T00:41:18.770Z,99149.00
2023-04-12T00:43:47.277Z,99142.00
2023-04-12T00:46:17.491Z,99137.00
2023-04-12T00:48:47.952Z,99136.00
2023-04-12T00:51:17.971Z,99139.00
2023-04-12T00:53:46.287Z,99128.00
2023-04-12T00:56:14.375Z,99143.00
2023-04-12T00:58:43.638Z,99132.00
2023-04-12T01:01:11.512Z,99127.00
2023-04-12T01:03:43.614Z,99117.00
2023-04-12T01:06:19.595Z,99121.00
2023-04-12T01:09:01.556Z,99107.00
2023-04-12T01:11:36.494Z,99111.00
2023-04-12T01:14:14.907Z,99117.00
2023-04-12T01:16:47.720Z,99109.00
2023-04-12T01:19:37.935Z,99108.00
2023-04-12T01:22:18.133Z,99100.00
2023-04-12T01:25:03.755Z,99102.00
2023-04-12T01:27:43.340Z,99098.00
2023-04-12T01:30:16.412Z,99087.00
2023-04-12T01:32:49.654Z,99089.00
2023-04-12T01:35:21.682Z,99080.00
2023-04-12T01:37:49.930Z,99081.00
2023-04-12T01:40:20.571Z,99066.00
2023-04-12T01:42:49.852Z,99076.00
2023-04-12T01:45:17.758Z,99074.00
2023-04-12T01:47:45.921Z,99061.00
2023-04-12T01:50:26.549Z,99062.00
2023-04-12T01:53:04.487Z,99056.00
2023-04-12T01:55:37.504Z,99053.00
2023-04-12T01:58:08.470Z,99047.00
2023-04-12T02:00:38.186Z,99050.00
2023-04-12T02:03:07.005Z,99040.00
2023-04-12T02:05:35.615Z,99042.00
2023-04-12T02:08:04.670Z,99039.00
2023-04-12T02:10:33.932Z,99035.00
2023-04-12T02:13:02.550Z,99025.00
2023-04-12T02:15:33.416Z,99035.00
2023-04-12T02:18:01.527Z,99034.00
2023-04-12T02:20:30.677Z,99044.00
2023-04-12T02:23:00.254Z,99036.00
2023-04-12T02:25:28.408Z,99037.00
2023-04-12T02:27:56.348Z,99033.00
2023-04-12T02:30:25.108Z,99030.00
2023-04-12T02:32:56.234Z,99023.00
2023-04-12T02:35:28.536Z,99020.00
2023-04-12T02:38:03.627Z,99018.00
2023-04-12T02:40:31.646Z,99017.00
2023-04-12T02:42:59.863Z,99021.00
2023-04-12T02:45:28.684Z,99011.00
2023-04-12T02:47:59.374Z,99011.00
2023-04-12T02:50:30.507Z,99008.00
2023-04-12T02:53:10.419Z,99002.00
2023-04-12T02:55:40.411Z,98997.00
2023-04-12T02:58:09.662Z,98998.00
2023-04-12T03:00:43.865Z,99004.00
2023-04-12T03:03:17.895Z,98988.00
2023-04-12T03:05:47.996Z,98988.00
2023-04-12T03:08:18.006Z,98980.00
2023-04-12T03:10:53.050Z,98969.00
2023-04-12T03:13:21.354Z,98972.00
2023-04-12T03:15:59.086Z,98966.00
2023-04-12T03:18:36.831Z,98963.00
2023-04-12T03:21:05.564Z,98962.00
2023-04-12T03:23:33.436Z,98968.00
2023-04-12T03:26:12.988Z,98956.00
2023-04-12T03:28:50.104Z,98960.00
2023-04-12T03:31:20.957Z,98955.00
2023-04-12T03:33:50.245Z,98960.00
2023-04-12T03:36:24.916Z,98957.00
2023-04-12T03:39:02.367Z,98953.00
2023-04-12T03:41:33.180Z,98942.00
2023-04-12T03:44:04.929Z,98937.00
2023-04-12T03:46:35.006Z,98932.00
2023-04-12T03:49:08.991Z,98933.00
2023-04-12T03:51:42.512Z,98925.00
2023-04-12T03:54:11.569Z,98920.00
2023-04-12T03:56:49.236Z,98914.00
2023-04-12T03:59:25.234Z,98922.00
2023-04-12T04:01:53.179Z,98916.00
2023-04-12T04:04:24.735Z,98919.00
2023-04-12T04:06:56.657Z,98920.00
2023-04-12T04:09:25.685Z,98914.00
2023-04-12T04:11:53.842Z,98913.00
2023-04-12T04:14:22.968Z,98911.00
2023-04-12T04:16:51.862Z,98905.00
2023-04-12T04:19:22.747Z,98901.00
2023-04-12T04:21:50.977Z,98896.00
2023-04-12T04:24:22.297Z,98900.00
2023-04-12T04:26:54.299Z,98894.00
2023-04-12T04:29:26.008Z,98893.00
2023-04-12T04:31:57.508Z,98881.00
2023-04-12T04:34:27.400Z,98893.00
2023-04-12T04:37:04.048Z,98890.00
2023-04-12T04:39:32.971Z,98902.00
2023-04-12T04:42:01.061Z,98891.00
2023-04-12T04:44:51.089Z,98894.00
2023-04-12T04:47:19.074Z,98888.00
2023-04-12T04:49:49.765Z,98893.00
2023-04-12T04:52:37.655Z,98883.00
2023-04-12T04:55:11.730Z,98888.00
2023-04-12T04:57:41.850Z,98882.00
2023-04-12T05:00:13.254Z,98883.00
2023-04-12T05:02:45.796Z,98879.00
2023-04-12T05:05:22.970Z,98876.00
2023-04-12T05:07:53.715Z,98880.00
2023-04-12T05:10:21.864Z,98877.00
2023-04-12T05:12:50.138Z,98875.00
2023-04-12T05:15:18.112Z,98870.00
2023-04-12T05:17:46.117Z,98871.00
2023-04-12T05:20:14.160Z,98863.00
2023-04-12T05:22:43.358Z,98862.00
2023-04-12T05:25:11.535Z,98859.00
2023-04-12T05:27:46.427Z,98857.00
2023-04-12T05:30:17.320Z,98839.00
2023-04-12T05:32:45.844Z,98837.00
2023-04-12T05:35:16.160Z,98826.00
2023-04-12T05:37:46.520Z,98819.00
2023-04-12T05:40:14.945Z,98824.00
2023-04-12T05:42:43.590Z,98811.00
2023-04-12T05:45:13.245Z,98803.00
2023-04-12T05:47:43.016Z,98808.00
2023-04-12T05:50:12.295Z,98805.00
2023-04-12T05:52:41.328Z,98804.00
2023-04-12T05:55:11.570Z,98795.00
2023-04-12T05:57:42.085Z,98811.00
2023-04-12T06:00:16.674Z,98799.00
2023-04-12T06:02:47.591Z,98787.00
2023-04-12T06:05:17.764Z,98779.00
2023-04-12T06:07:48.072Z,98768.00
2023-04-12T06:10:18.261Z,98761.00
2023-04-12T06:12:49.928Z,98769.00
2023-04-12T06:15:19.773Z,98750.00
2023-04-12T06:17:50.816Z,98751.00
2023-04-12T06:20:19.474Z,98759.00
2023-04-12T06:22:47.414Z,98758.00
2023-04-12T06:25:19.354Z,98754.00
2023-04-12T06:27:48.670Z,98740.00
2023-04-12T06:30:19.687Z,98741.00
2023-04-12T06:32:48.569Z,98742.00
2023-04-12T06:35:16.908Z,98745.00
2023-04-12T06:37:44.883Z,98738.00
2023-04-12T06:40:13.478Z,98734.00
2023-04-12T06:42:42.823Z,98732.00
2023-04-12T06:45:12.692Z,98727.00
2023-04-12T06:47:40.696Z,98739.00
2023-04-12T06:50:09.712Z,98714.00
2023-04-12T06:52:37.596Z,98719.00
2023-04-12T06:55:07.113Z,98700.00
2023-04-12T06:57:34.966Z,98704.00
2023-04-12T07:00:04.677Z,98704.00
2023-04-12T07:02:32.838Z,98700.00
2023-04-12T07:05:00.929Z,98693.00
2023-04-12T07:07:29.485Z,98691.00
2023-04-12T07:09:57.398Z,98691.00
2023-04-12T07:12:25.326Z,98673.00
2023-04-12T07:14:54.130Z,98683.00
2023-04-12T07:17:23.520Z,98683.00
2023-04-12T07:19:52.166Z,98678.00
2023-04-12T07:22:20.003Z,98671.00
2023-04-12T07:24:47.953Z,98666.00
2023-04-12T07:27:16.073Z,98664.00
2023-04-12T07:29:44.235Z,98672.00
2023-04-12T07:32:12.244Z,98679.00
2023-04-12T07:34:41.849Z,98664.00
2023-04-12T07:37:09.824Z,98655.00
2023-04-12T07:39:40.406Z,98649.00
2023-04-12T07:42:08.371Z,98649.00
2023-04-12T07:44:38.649Z,98646.00
2023-04-12T07:47:07.188Z,98634.00
2023-04-12T07:49:35.105Z,98636.00
2023-04-12T07:52:04.586Z,98626.00
2023-04-12T07:54:32.513Z,98619.00
2023-04-12T07:57:02.406Z,98609.00
2023-04-12T07:59:31.049Z,98611.00
2023-04-12T08:01:59.274Z,98607.00
2023-04-12T08:04:28.245Z,98605.00
2023-04-12T08:06:56.571Z,98593.00
2023-04-12T08:09:25.976Z,98600.00
2023-04-12T08:11:53.895Z,98596.00
2023-04-12T08:14:21.896Z,98589.00
2023-04-12T08:16:49.803Z,98589.00
2023-04-12T08:19:19.050Z,98589.00
2023-04-12T08:21:46.909Z,98581.00
2023-04-12T08:24:14.805Z,98583.00
2023-04-12T08:26:43.988Z,98565.00
2023-04-12T08:29:12.201Z,98565.00
2023-04-12T08:31:40.911Z,98565.00
2023-04-12T08:34:08.843Z,98562.00
2023-04-12T08:36:36.811Z,98563.00
2023-04-12T08:39:04.976Z,98559.00
2023-04-12T08:41:36.044Z,98555.00
2023-04-12T08:44:06.892Z,98556.00
2023-04-12T08:46:37.321Z,98554.00
2023-04-12T08:49:05.376Z,98552.00
2023-04-12T08:51:36.207Z,98541.00
2023-04-12T08:54:05.906Z,98537.00
2023-04-12T08:56:34.166Z,98536.00
2023-04-12T08:59:03.031Z,98538.00
2023-04-12T09:01:32.324Z,98529.00
2023-04-12T09:04:00.702Z,98528.00
2023-04-12T09:06:28.868Z,98527.00
2023-04-12T09:08:59.389Z,98534.00
2023-04-12T09:11:29.469Z,98508.00
2023-04-12T09:13:59.202Z,98503.00
2023-04-12T09:16:41.311Z,98507.00
2023-04-12T09:19:10.292Z,98500.00
2023-04-12T09:21:48.554Z,98494.00
2023-04-12T09:24:16.418Z,98489.00
2023-04-12T09:26:44.297Z,98471.00
2023-04-12T09:29:25.991Z,98477.00
2023-04-12T09:32:02.151Z,98474.00
2023-04-12T09:34:30.819Z,98477.00
2023-04-12T09:36:59.204Z,98478.00
2023-04-12T09:39:34.103Z,98475.00
2023-04-12T09:42:14.924Z,98466.00
2023-04-12T09:44:46.345Z,98470.00
2023-04-12T09:47:15.641Z,98466.00
2023-04-12T09:49:45.807Z,98461.00
2023-04-12T09:52:15.757Z,98447.00
2023-04-12T09:54:46.471Z,98446.00
2023-04-12T09:57:18.930Z,98443.00
2023-04-12T09:59:52.195Z,98441.00
2023-04-12T10:02:28.906Z,98441.00
2023-04-12T10:04:57.535Z,98426.00
2023-04-12T10:07:27.205Z,98437.00
2023-04-12T10:09:55.726Z,98431.00
2023-04-12T10:12:23.904Z,98427.00
2023-04-12T10:14:53.284Z,98421.00
2023-04-12T10:17:26.851Z,98410.00
2023-04-12T10:19:55.750Z,98397.00
2023-04-12T10:22:23.821Z,98389.00
2023-04-12T10:24:52.602Z,98392.00
2023-04-12T10:27:27.175Z,98388.00
2023-04-12T10:29:55.490Z,98379.00
2023-04-12T10:32:26.189Z,98384.00
2023-04-12T10:35:00.566Z,98384.00
2023-04-12T10:38:04.649Z,98375.00
2023-04-12T10:40:34.356Z,98370.00
2023-04-12T10:43:27.592Z,98362.00
2023-04-12T10:45:55.992Z,98359.00
2023-04-12T10:48:35.827Z,98365.00
2023-04-12T10:51:15.777Z,98367.00
2023-04-12T10:53:43.829Z,98357.00
2023-04-12T10:56:41.706Z,98350.00
2023-04-12T10:59:15.099Z,98336.00
2023-04-12T11:02:10.813Z,98343.00
2023-04-12T11:05:08.970Z,98353.00
2023-04-12T11:08:06.634Z,98323.00
2023-04-12T11:10:40.871Z,98333.00
2023-04-12T11:13:12.895Z,98331.00
2023-04-12T11:15:41.333Z,98321.00
2023-04-12T11:18:18.680Z,98326.00
2023-04-12T11:20:48.052Z,98314.00
2023-04-12T11:23:16.580Z,98315.00
2023-04-12T11:25:50.525Z,98317.00
2023-04-12T11:28:28.857Z,98309.00
2023-04-12T11:30:59.593Z,98310.00
2023-04-12T11:33:35.721Z,98310.00
2023-04-12T11:36:12.202Z,98299.00
2023-04-12T11:38:41.316Z,98293.00
2023-04-12T11:41:11.485Z,98285.00
2023-04-12T11:43:39.777Z,98282.00
2023-04-12T11:46:08.181Z,98257.00
2023-04-12T11:48:38.490Z,98274.00
2023-04-12T11:51:24.606Z,98268.00
2023-04-12T11:53:54.800Z,98264.00
2023-04-12T11:56:23.867Z,98266.00
2023-04-12T11:58:52.238Z,98266.00
2023-04-12T12:01:22.833Z,98243.00
2023-04-12T12:03:51.697Z,98253.00
2023-04-12T12:06:22.516Z,98254.00
2023-04-12T12:08:51.973Z,98255.00
2023-04-12T12:11:23.511Z,98245.00
2023-04-12T12:13:53.652Z,98237.00
2023-04-12T12:16:27.649Z,98238.00
2023-04-12T12:18:57.448Z,98233.00
2023-04-12T12:21:27.749Z,98227.00
2023-04-12T12:23:58.544Z,98228.00
2023-04-12T12:26:29.058Z,98236.00
2023-04-12T12:29:00.219Z,98241.00
2023-04-12T12:31:29.596Z,98235.00
2023-04-12T12:34:00.996Z,98227.00
2023-04-12T12:36:36.611Z,98218.00
2023-04-12T12:39:10.230Z,98220.00
2023-04-12T12:41:38.936Z,98214.00
2023-04-12T12:44:07.860Z,98198.00
2023-04-12T12:49:06.867Z,98202.00
2023-04-12T12:51:36.473Z,98193.00
2023-04-12T12:54:04.498Z,98185.00
2023-04-12T12:56:32.455Z,98182.00
2023-04-12T12:59:00.385Z,98181.00
2023-04-12T13:01:28.517Z,98184.00
2023-04-12T13:03:56.642Z,98164.00
2023-04-12T13:06:25.803Z,98172.00
2023-04-12T13:08:56.163Z,98177.00
2023-04-12T13:11:24.250Z,98184.00
2023-04-12T13:13:52.118Z,98184.00
2023-04-12T13:16:20.030Z,98179.00
2023-04-12T13:18:47.986Z,98169.00
2023-04-12T13:21:16.053Z,98164.00
2023-04-12T13:23:43.934Z,98176.00
2023-04-12T13:26:13.123Z,98176.00
2023-04-12T13:28:41.016Z,98177.00
2023-04-12T13:31:08.923Z,98171.00
2023-04-12T13:33:36.849Z,98183.00
2023-04-12T13:36:05.247Z,98184.00
2023-04-12T13:38:33.109Z,98183.00
2023-04-12T13:41:01.056Z,98191.00
2023-04-12T13:43:30.352Z,98188.00
2023-04-12T13:45:58.249Z,98188.00
2023-04-12T13:48:26.292Z,98175.00
2023-04-12T13:50:55.502Z,98187.00
2023-04-12T13:53:23.572Z,98169.00
2023-04-12T13:55:51.419Z,98172.00
2023-04-12T13:58:19.319Z,98168.00
2023-04-12T14:00:48.665Z,98178.00
2023-04-12T14:03:16.527Z,98167.00
2023-04-12T14:05:44.418Z,98167.00
2023-04-12T14:08:12.334Z,98168.00
2023-04-12T14:10:40.275Z,98160.00
2023-04-12T14:13:08.137Z,98161.00
2023-04-12T14:15:35.986Z,98160.00
2023-04-12T14:18:05.515Z,98158.00
2023-04-12T14:20:33.452Z,98154.00
2023-04-12T14:23:01.371Z,98153.00
2023-04-12T14:25:29.298Z,98154.00
2023-04-12T14:27:57.887Z,98152.00
2023-04-12T14:30:26.145Z,98155.00
2023-04-12T14:32:54.057Z,98146.00
2023-04-12T14:35:23.378Z,98147.00
2023-04-12T14:37:51.357Z,98152.00
2023-04-12T14:40:20.012Z,98146.00
2023-04-12T14:42:47.928Z,98150.00
2023-04-12T14:45:17.336Z,98142.00
2023-04-12T14:47:45.325Z,98148.00
2023-04-12T14:50:13.353Z,98138.00
2023-04-12T14:52:42.708Z,98139.00
2023-04-12T14:55:11.493Z,98134.00
2023-04-12T14:57:40.435Z,98138.00
2023-04-12T15:00:13.403Z,98141.00
2023-04-12T15:02:41.697Z,98138.00
2023-04-12T15:05:10.347Z,98135.00
2023-04-12T15:07:39.338Z,98131.00
2023-04-12T15:10:10.943Z,98120.00
2023-04-12T15:12:38.787Z,98137.00
2023-04-12T15:15:08.081Z,98130.00
2023-04-12T15:17:35.977Z,98132.00
2023-04-12T15:20:09.264Z,98121.00
2023-04-12T15:22:37.294Z,98134.00
2023-04-12T15:25:06.672Z,98125.00
2023-04-12T15:27:36.008Z,98125.00
2023-04-12T15:30:07.978Z,98120.00
2023-04-12T15:32:38.600Z,98122.00
2023-04-12T15:37:42.019Z,98102.00
2023-04-12T15:40:13.987Z,98102.00
2023-04-12T15:42:44.965Z,98094.00
2023-04-12T15:45:13.067Z,98099.00
2023-04-12T15:47:41.578Z,98101.00
2023-04-12T15:50:10.308Z,98091.00
2023-04-12T15:52:38.237Z,98075.00
2023-04-12T15:55:07.078Z,98069.00
2023-04-12T15:57:36.549Z,98067.00
2023-04-12T16:00:20.692Z,98074.00
2023-04-12T16:02:54.678Z,98066.00
2023-04-12T16:05:24.464Z,98056.00
2023-04-12T16:07:52.540Z,98049.00
2023-04-12T16:10:22.218Z,98052.00
2023-04-12T16:12:50.839Z,98045.00
2023-04-12T16:15:21.622Z,98046.00
2023-04-12T16:17:53.220Z,98038.00
2023-04-12T16:20:22.429Z,98037.00
2023-04-12T16:22:54.266Z,98030.00
2023-04-12T16:25:23.247Z,98030.00
2023-04-12T16:27:51.662Z,98025.00
2023-04-12T16:30:22.421Z,98026.00
2023-04-12T16:32:51.527Z,98007.00
2023-04-12T16:35:19.512Z,97999.00
2023-04-12T16:37:47.991Z,98002.00
2023-04-12T16:40:17.119Z,97988.00
2023-04-12T16:42:45.926Z,97999.00
2023-04-12T16:45:15.060Z,97993.00
2023-04-12T16:47:47.803Z,97988.00
2023-04-12T16:50:16.525Z,97984.00
2023-04-12T16:52:44.583Z,97977.00
2023-04-12T16:55:13.332Z,97984.00
2023-04-12T16:57:44.130Z,97967.00
2023-04-12T17:00:19.510Z,97971.00
2023-04-12T17:02:51.775Z,97966.00
2023-04-12T17:05:21.436Z,97964.00
2023-04-12T17:07:51.394Z,97964.00
2023-04-12T17:10:21.651Z,97966.00
2023-04-12T17:12:52.815Z,97963.00
2023-04-12T17:15:22.690Z,97970.00
2023-04-12T17:17:55.332Z,97968.00
2023-04-12T17:20:23.939Z,97971.00
2023-04-12T17:22:52.135Z,97969.00
2023-04-12T17:25:22.121Z,97964.00
2023-04-12T17:27:51.550Z,97965.00
2023-04-12T17:30:19.456Z,97972.00
2023-04-12T17:32:48.756Z,97983.00
2023-04-12T17:35:19.844Z,97980.00
2023-04-12T17:37:48.237Z,97969.00
2023-04-12T17:40:16.854Z,97982.00
2023-04-12T17:42:44.977Z,97974.00
2023-04-12T17:45:14.806Z,97968.00
2023-04-12T17:47:43.780Z,97972.00
2023-04-12T17:50:12.840Z,97968.00
2023-04-12T17:52:42.380Z,97971.00
2023-04-12T17:55:12.490Z,97959.00
2023-04-12T17:57:40.651Z,97959.00
2023-04-12T18:00:11.593Z,97959.00
2023-04-12T18:02:44.690Z,97955.00
2023-04-12T18:05:13.234Z,97945.00
2023-04-12T18:07:42.606Z,97961.00
2023-04-12T18:10:15.529Z,97947.00
2023-04-12T18:12:45.020Z,97946.00
2023-04-12T18:15:13.029Z,97947.00
2023-04-12T18:17:41.070Z,97940.00
2023-04-12T18:20:11.369Z,97946.00
2023-04-12T18:22:39.861Z,97946.00
2023-04-12T18:25:11.604Z,97944.00
2023-04-12T18:27:39.584Z,97946.00
2023-04-12T18:30:09.339Z,97943.00
2023-04-12T18:32:37.411Z,97955.00
2023-04-12T18:35:06.291Z,97960.00
2023-04-12T18:37:34.474Z,97954.00
2023-04-12T18:40:02.579Z,97963.00
2023-04-12T18:42:31.943Z,97971.00
2023-04-12T18:44:59.932Z,97971.00
2023-04-12T18:47:28.579Z,97977.00
2023-04-12T18:49:56.544Z,97963.00
2023-04-12T18:52:24.544Z,97961.00
2023-04-12T18:54:52.431Z,97966.00
2023-04-12T18:57:20.452Z,97968.00
2023-04-12T18:59:51.407Z,97962.00
2023-04-12T19:02:19.505Z,97953.00
2023-04-12T19:04:47.657Z,97953.00
2023-04-12T19:07:16.359Z,97955.00
2023-04-12T19:09:44.341Z,97964.00
2023-04-12T19:12:12.220Z,97960.00
2023-04-12T19:14:40.112Z,97964.00
2023-04-12T19:17:09.440Z,97959.00
2023-04-12T19:19:37.411Z,97956.00
2023-04-12T19:22:05.329Z,97956.00
2023-04-12T19:24:33.765Z,97939.00
2023-04-12T19:27:01.792Z,97914.00
2023-04-12T19:29:29.684Z,97923.00
2023-04-12T19:31:58.127Z,97916.00
2023-04-12T19:34:27.746Z,97920.00
2023-04-12T19:36:55.630Z,97927.00
2023-04-12T19:39:23.966Z,97921.00
2023-04-12T19:41:52.483Z,97916.00
2023-04-12T19:44:20.955Z,97916.00
2023-04-12T19:46:48.836Z,97898.00
2023-04-12T19:49:16.733Z,97903.00
2023-04-12T19:51:47.565Z,97916.00
2023-04-12T19:54:15.578Z,97921.00
2023-04-12T19:56:44.197Z,97935.00
2023-04-12T19:59:12.286Z,97937.00
2023-04-12T20:01:48.383Z,97922.00
2023-04-12T20:04:17.089Z,97929.00
2023-04-12T20:06:46.906Z,97935.00
2023-04-12T20:09:15.266Z,97934.00
2023-04-12T20:11:43.271Z,97937.00
2023-04-12T20:14:11.454Z,97942.00
2023-04-12T20:16:42.621Z,97946.00
2023-04-12T20:19:11.168Z,97952.00
2023-04-12T20:21:39.297Z,97954.00
2023-04-12T20:24:09.235Z,97960.00
2023-04-12T20:26:37.440Z,97955.00
2023-04-12T20:29:06.631Z,97953.00
2023-04-12T20:31:34.829Z,97952.00
2023-04-12T20:34:04.003Z,97966.00
2023-04-12T20:36:32.773Z,97956.00
2023-04-12T20:39:01.649Z,97952.00
2023-04-12T20:41:30.974Z,97949.00
2023-04-12T20:43:59.407Z,97961.00
2023-04-12T20:46:27.298Z,97964.00
2023-04-12T20:48:56.324Z,97965.00
2023-04-12T20:51:25.121Z,97968.00
2023-04-12T20:53:53.004Z,97966.00
2023-04-12T20:56:20.892Z,97959.00
2023-04-12T20:58:50.145Z,97971.00
2023-04-12T21:01:18.592Z,97959.00
2023-04-12T21:03:47.566Z,97966.00
2023-04-12T21:06:15.781Z,97976.00
2023-04-12T21:08:44.449Z,97976.00
2023-04-12T21:11:12.377Z,97976.00
2023-04-12T21:13:40.596Z,97971.00
2023-04-12T21:16:14.442Z,97968.00
2023-04-12T21:18:42.752Z,97976.00
2023-04-12T21:21:10.692Z,97973.00
2023-04-12T21:23:38.564Z,97970.00
2023-04-12T21:26:07.036Z,97976.00
2023-04-12T21:28:34.896Z,97970.00
2023-04-12T21:31:03.958Z,97984.00
2023-04-12T21:33:34.728Z,97979.00
2023-04-12T21:36:02.662Z,97970.00
2023-04-12T21:38:30.681Z,97970.00
2023-04-12T21:41:07.028Z,97967.00
2023-04-12T21:43:34.982Z,97980.00
2023-04-12T21:46:03.017Z,97983.00
2023-04-12T21:48:30.925Z,97984.00
2023-04-12T21:51:00.216Z,97972.00
2023-04-12T21:53:28.449Z,97978.00
2023-04-12T21:55:56.353Z,97980.00
2023-04-12T21:58:24.215Z,97987.00
2023-04-12T22:00:52.518Z,97982.00
2023-04-12T22:03:20.503Z,97997.00
2023-04-12T22:06:00.785Z,97995.00
2023-04-12T22:08:34.108Z,97987.00
2023-04-12T22:11:02.356Z,97988.00
2023-04-12T22:13:30.738Z,97983.00
2023-04-12T22:16:00.664Z,97991.00
2023-04-12T22:18:28.562Z,97991.00
2023-04-12T22:20:57.742Z,97991.00
2023-04-12T22:23:25.632Z,97995.00
2023-04-12T22:25:58.282Z,97993.00
2023-04-12T22:28:26.234Z,98000.00
2023-04-12T22:30:56.986Z,98008.00
2023-04-12T22:33:25.111Z,98011.00
2023-04-12T22:35:53.096Z,98015.00
2023-04-12T22:38:20.976Z,98014.00
2023-04-12T22:40:48.966Z,98026.00
2023-04-12T22:43:20.812Z,98029.00
2023-04-12T22:45:49.041Z,98027.00
2023-04-12T22:48:16.895Z,98015.00
2023-04-12T22:50:45.561Z,98015.00
2023-04-12T22:53:13.872Z,98011.00
2023-04-12T22:55:42.185Z,98021.00
2023-04-12T22:58:10.186Z,98037.00
2023-04-12T23:00:40.060Z,98038.00
2023-04-12T23:03:10.810Z,98034.00
2023-04-12T23:05:38.941Z,98043.00
2023-04-12T23:08:07.154Z,98052.00
2023-04-12T23:10:35.018Z,98051.00
2023-04-12T23:13:03.205Z,98046.00
2023-04-12T23:15:31.603Z,98052.00
2023-04-12T23:18:01.794Z,98050.00
2023-04-12T23:20:30.402Z,98059.00
2023-04-12T23:22:58.697Z,98066.00
2023-04-12T23:25:37.947Z,98071.00
2023-04-12T23:28:07.527Z,98076.00
2023-04-12T23:30:35.360Z,98082.00
2023-04-12T23:33:04.690Z,98083.00
2023-04-12T23:35:32.665Z,98089.00
2023-04-12T23:38:01.472Z,98090.00
2023-04-12T23:40:30.475Z,98078.00
2023-04-12T23:42:58.698Z,98083.00
2023-04-12T23:45:27.243Z,98090.00
2023-04-12T23:47:55.248Z,98084.00
2023-04-12T23:50:25.199Z,98090.00
2023-04-12T23:52:53.025Z,98092.00
2023-04-12T23:55:20.917Z,98091.00
2023-04-12T23:57:48.779Z,98094.00
